Mount Vernon, Virginia
Current Conditions -  °F | °C
As of 8:58 AM on Saturday 20 Dec 2014 (Local Time) from KDAA Reporting Station
Clear Clear  
Wind Chill: 27°   Ceiling: Unl
Heat Index: 27°   Visibility: 10mi
Dew Point: 24°   Wind: 0mph
Humidity: 90%   Direction: NA
Pressure: 30.34"   Gusts: NA
Location:  38.71°N, 77.08°W
Report Text: KDAA 201358Z AUTO 00000KT 10SM CLR M03/M04 A3034 RMK AO2 SLP278 T10301044
Loading
Personal Weather Stations






























Interactive Weather Map New forecast layout! Learn more

10-Day Weather Forecast

Advertisements
Track Severe Weather on mobile